sensor_id;sensor_type;location;lat;lon;timestamp;temperature;humidity
32502;DHT22;18952;52.516;13.460;2024-03-08T00:00:11;4.40;53.80
32502;DHT22;18952;52.516;13.460;2024-03-08T00:02:41;4.40;53.60
32502;DHT22;18952;52.516;13.460;2024-03-08T00:05:09;4.30;53.70
32502;DHT22;18952;52.516;13.460;2024-03-08T00:07:37;4.20;54.10
32502;DHT22;18952;52.516;13.460;2024-03-08T00:10:09;4.20;54.10
32502;DHT22;18952;52.516;13.460;2024-03-08T00:12:45;4.20;54.10
32502;DHT22;18952;52.516;13.460;2024-03-08T00:15:14;4.30;54.10
32502;DHT22;18952;52.516;13.460;2024-03-08T00:17:44;4.20;54.20
32502;DHT22;18952;52.516;13.460;2024-03-08T00:20:12;4.20;54.40
32502;DHT22;18952;52.516;13.460;2024-03-08T00:22:39;4.10;54.40
32502;DHT22;18952;52.516;13.460;2024-03-08T00:25:07;4.10;54.50
32502;DHT22;18952;52.516;13.460;2024-03-08T00:27:34;4.20;54.50
32502;DHT22;18952;52.516;13.460;2024-03-08T00:30:02;4.10;54.30
32502;DHT22;18952;52.516;13.460;2024-03-08T00:32:33;4.10;54.50
32502;DHT22;18952;52.516;13.460;2024-03-08T00:35:04;4.10;54.50
32502;DHT22;18952;52.516;13.460;2024-03-08T00:37:34;4.10;54.50
32502;DHT22;18952;52.516;13.460;2024-03-08T00:40:05;4.00;54.70
32502;DHT22;18952;52.516;13.460;2024-03-08T00:42:32;4.00;54.80
32502;DHT22;18952;52.516;13.460;2024-03-08T00:45:00;4.10;54.80
32502;DHT22;18952;52.516;13.460;2024-03-08T00:47:27;4.10;54.80
32502;DHT22;18952;52.516;13.460;2024-03-08T00:49:58;4.00;55.00
32502;DHT22;18952;52.516;13.460;2024-03-08T00:52:26;4.00;55.00
32502;DHT22;18952;52.516;13.460;2024-03-08T00:54:55;4.00;55.10
32502;DHT22;18952;52.516;13.460;2024-03-08T00:57:25;4.00;55.30
32502;DHT22;18952;52.516;13.460;2024-03-08T01:00:07;3.90;55.30
32502;DHT22;18952;52.516;13.460;2024-03-08T01:02:36;3.90;55.50
32502;DHT22;18952;52.516;13.460;2024-03-08T01:05:03;3.80;55.50
32502;DHT22;18952;52.516;13.460;2024-03-08T01:07:30;3.90;55.40
32502;DHT22;18952;52.516;13.460;2024-03-08T01:09:57;3.90;55.30
32502;DHT22;18952;52.516;13.460;2024-03-08T01:12:26;3.80;55.40
32502;DHT22;18952;52.516;13.460;2024-03-08T01:14:54;3.80;55.30
32502;DHT22;18952;52.516;13.460;2024-03-08T01:17:21;3.80;55.40
32502;DHT22;18952;52.516;13.460;2024-03-08T01:19:49;3.80;55.50
32502;DHT22;18952;52.516;13.460;2024-03-08T01:22:20;3.80;55.50
32502;DHT22;18952;52.516;13.460;2024-03-08T01:24:49;3.70;55.70
32502;DHT22;18952;52.516;13.460;2024-03-08T01:27:19;3.70;55.70
32502;DHT22;18952;52.516;13.460;2024-03-08T01:29:47;3.70;55.60
32502;DHT22;18952;52.516;13.460;2024-03-08T01:32:14;3.70;55.60
32502;DHT22;18952;52.516;13.460;2024-03-08T01:34:43;3.70;55.70
32502;DHT22;18952;52.516;13.460;2024-03-08T01:37:11;3.70;55.80
32502;DHT22;18952;52.516;13.460;2024-03-08T01:39:38;3.70;55.90
32502;DHT22;18952;52.516;13.460;2024-03-08T01:42:06;3.70;55.80
32502;DHT22;18952;52.516;13.460;2024-03-08T01:44:35;3.70;55.90
32502;DHT22;18952;52.516;13.460;2024-03-08T01:47:02;3.60;56.10
32502;DHT22;18952;52.516;13.460;2024-03-08T01:49:30;3.60;56.00
32502;DHT22;18952;52.516;13.460;2024-03-08T01:51:57;3.60;56.20
32502;DHT22;18952;52.516;13.460;2024-03-08T01:54:27;3.60;56.00
32502;DHT22;18952;52.516;13.460;2024-03-08T01:56:54;3.60;56.10
32502;DHT22;18952;52.516;13.460;2024-03-08T01:59:23;3.60;56.20
32502;DHT22;18952;52.516;13.460;2024-03-08T02:01:51;3.50;56.80
32502;DHT22;18952;52.516;13.460;2024-03-08T02:04:18;3.60;56.30
32502;DHT22;18952;52.516;13.460;2024-03-08T02:06:45;3.50;56.20
32502;DHT22;18952;52.516;13.460;2024-03-08T02:09:13;3.50;56.30
32502;DHT22;18952;52.516;13.460;2024-03-08T02:11:41;3.40;56.40
32502;DHT22;18952;52.516;13.460;2024-03-08T02:14:10;3.40;56.70
32502;DHT22;18952;52.516;13.460;2024-03-08T02:16:39;3.40;56.80
32502;DHT22;18952;52.516;13.460;2024-03-08T02:19:06;3.40;56.80
32502;DHT22;18952;52.516;13.460;2024-03-08T02:21:35;3.40;56.90
32502;DHT22;18952;52.516;13.460;2024-03-08T02:24:02;3.30;56.90
32502;DHT22;18952;52.516;13.460;2024-03-08T02:26:30;3.30;57.10
32502;DHT22;18952;52.516;13.460;2024-03-08T02:28:58;3.30;57.10
32502;DHT22;18952;52.516;13.460;2024-03-08T02:31:26;3.30;57.10
32502;DHT22;18952;52.516;13.460;2024-03-08T02:33:55;3.30;57.30
32502;DHT22;18952;52.516;13.460;2024-03-08T02:36:24;3.20;57.30
32502;DHT22;18952;52.516;13.460;2024-03-08T02:38:52;3.20;57.60
32502;DHT22;18952;52.516;13.460;2024-03-08T02:41:19;3.20;57.80
32502;DHT22;18952;52.516;13.460;2024-03-08T02:43:47;3.20;57.70
32502;DHT22;18952;52.516;13.460;2024-03-08T02:46:15;3.10;57.90
32502;DHT22;18952;52.516;13.460;2024-03-08T02:48:43;3.20;57.70
32502;DHT22;18952;52.516;13.460;2024-03-08T02:51:11;3.10;57.80
32502;DHT22;18952;52.516;13.460;2024-03-08T02:53:41;3.10;57.90
32502;DHT22;18952;52.516;13.460;2024-03-08T02:56:08;3.20;58.10
32502;DHT22;18952;52.516;13.460;2024-03-08T02:58:36;3.20;58.00
32502;DHT22;18952;52.516;13.460;2024-03-08T03:01:04;3.20;58.10
32502;DHT22;18952;52.516;13.460;2024-03-08T03:03:32;3.20;58.10
32502;DHT22;18952;52.516;13.460;2024-03-08T03:06:00;3.20;58.00
32502;DHT22;18952;52.516;13.460;2024-03-08T03:08:28;3.20;58.00
32502;DHT22;18952;52.516;13.460;2024-03-08T03:10:58;3.10;58.10
32502;DHT22;18952;52.516;13.460;2024-03-08T03:13:25;3.10;58.10
32502;DHT22;18952;52.516;13.460;2024-03-08T03:15:53;3.10;58.20
32502;DHT22;18952;52.516;13.460;2024-03-08T03:18:21;3.10;58.30
32502;DHT22;18952;52.516;13.460;2024-03-08T03:20:48;3.10;58.40
32502;DHT22;18952;52.516;13.460;2024-03-08T03:23:15;3.10;58.30
32502;DHT22;18952;52.516;13.460;2024-03-08T03:26:13;3.10;58.40
32502;DHT22;18952;52.516;13.460;2024-03-08T03:28:46;3.10;58.40
32502;DHT22;18952;52.516;13.460;2024-03-08T03:31:13;3.00;58.60
32502;DHT22;18952;52.516;13.460;2024-03-08T03:33:41;3.00;58.80
32502;DHT22;18952;52.516;13.460;2024-03-08T03:36:08;3.00;58.80
32502;DHT22;18952;52.516;13.460;2024-03-08T03:38:36;3.00;58.70
32502;DHT22;18952;52.516;13.460;2024-03-08T03:41:07;2.90;58.90
32502;DHT22;18952;52.516;13.460;2024-03-08T03:43:37;2.90;58.90
32502;DHT22;18952;52.516;13.460;2024-03-08T03:46:07;3.00;58.70
32502;DHT22;18952;52.516;13.460;2024-03-08T03:48:35;2.90;58.80
32502;DHT22;18952;52.516;13.460;2024-03-08T03:51:02;2.90;58.80
32502;DHT22;18952;52.516;13.460;2024-03-08T03:53:30;2.90;59.00
32502;DHT22;18952;52.516;13.460;2024-03-08T03:56:00;2.90;59.20
32502;DHT22;18952;52.516;13.460;2024-03-08T03:58:27;2.80;59.50
32502;DHT22;18952;52.516;13.460;2024-03-08T04:00:56;2.70;59.70
32502;DHT22;18952;52.516;13.460;2024-03-08T04:03:25;2.80;59.50
32502;DHT22;18952;52.516;13.460;2024-03-08T04:05:55;2.80;59.30
32502;DHT22;18952;52.516;13.460;2024-03-08T04:08:25;2.90;59.20
32502;DHT22;18952;52.516;13.460;2024-03-08T04:10:55;2.80;59.40
32502;DHT22;18952;52.516;13.460;2024-03-08T04:13:23;2.80;59.40
32502;DHT22;18952;52.516;13.460;2024-03-08T04:15:52;2.70;59.40
32502;DHT22;18952;52.516;13.460;2024-03-08T04:18:19;2.80;59.60
32502;DHT22;18952;52.516;13.460;2024-03-08T04:20:51;2.80;59.50
32502;DHT22;18952;52.516;13.460;2024-03-08T04:23:18;2.80;59.50
32502;DHT22;18952;52.516;13.460;2024-03-08T04:25:46;2.70;59.60
32502;DHT22;18952;52.516;13.460;2024-03-08T04:28:14;2.80;59.90
32502;DHT22;18952;52.516;13.460;2024-03-08T04:30:42;2.70;59.60
32502;DHT22;18952;52.516;13.460;2024-03-08T04:33:11;2.80;59.50
32502;DHT22;18952;52.516;13.460;2024-03-08T04:35:38;2.80;59.50
32502;DHT22;18952;52.516;13.460;2024-03-08T04:38:06;2.70;59.70
32502;DHT22;18952;52.516;13.460;2024-03-08T04:40:34;2.70;59.80
32502;DHT22;18952;52.516;13.460;2024-03-08T04:43:01;2.80;59.60
32502;DHT22;18952;52.516;13.460;2024-03-08T04:45:29;2.80;59.60
32502;DHT22;18952;52.516;13.460;2024-03-08T04:47:56;2.70;59.80
32502;DHT22;18952;52.516;13.460;2024-03-08T04:50:25;2.70;60.00
32502;DHT22;18952;52.516;13.460;2024-03-08T04:52:52;2.70;59.90
32502;DHT22;18952;52.516;13.460;2024-03-08T04:55:20;2.70;59.90
32502;DHT22;18952;52.516;13.460;2024-03-08T04:57:50;2.60;60.30
32502;DHT22;18952;52.516;13.460;2024-03-08T05:00:18;2.60;60.30
32502;DHT22;18952;52.516;13.460;2024-03-08T05:02:45;2.50;60.40
32502;DHT22;18952;52.516;13.460;2024-03-08T05:05:13;2.60;60.50
32502;DHT22;18952;52.516;13.460;2024-03-08T05:07:41;2.50;60.50
32502;DHT22;18952;52.516;13.460;2024-03-08T05:10:09;2.50;60.70
32502;DHT22;18952;52.516;13.460;2024-03-08T05:12:37;2.50;60.70
32502;DHT22;18952;52.516;13.460;2024-03-08T05:15:05;2.50;60.70
32502;DHT22;18952;52.516;13.460;2024-03-08T05:17:33;2.40;60.80
32502;DHT22;18952;52.516;13.460;2024-03-08T05:20:01;2.40;60.90
32502;DHT22;18952;52.516;13.460;2024-03-08T05:22:29;2.40;60.90
32502;DHT22;18952;52.516;13.460;2024-03-08T05:24:58;2.40;60.90
32502;DHT22;18952;52.516;13.460;2024-03-08T05:27:27;2.40;61.10
32502;DHT22;18952;52.516;13.460;2024-03-08T05:29:54;2.30;61.40
32502;DHT22;18952;52.516;13.460;2024-03-08T05:32:22;2.20;61.70
32502;DHT22;18952;52.516;13.460;2024-03-08T05:34:49;2.30;61.60
32502;DHT22;18952;52.516;13.460;2024-03-08T05:37:16;2.30;61.60
32502;DHT22;18952;52.516;13.460;2024-03-08T05:39:43;2.30;61.40
32502;DHT22;18952;52.516;13.460;2024-03-08T05:42:10;2.30;61.60
32502;DHT22;18952;52.516;13.460;2024-03-08T05:44:37;2.30;61.50
32502;DHT22;18952;52.516;13.460;2024-03-08T05:47:06;2.30;61.50
32502;DHT22;18952;52.516;13.460;2024-03-08T05:49:32;2.30;61.40
32502;DHT22;18952;52.516;13.460;2024-03-08T05:52:00;2.30;61.70
32502;DHT22;18952;52.516;13.460;2024-03-08T05:54:29;2.30;61.70
32502;DHT22;18952;52.516;13.460;2024-03-08T05:56:57;2.30;62.00
32502;DHT22;18952;52.516;13.460;2024-03-08T05:59:25;2.30;61.90
32502;DHT22;18952;52.516;13.460;2024-03-08T06:01:53;2.30;61.90
32502;DHT22;18952;52.516;13.460;2024-03-08T06:04:21;2.30;61.90
32502;DHT22;18952;52.516;13.460;2024-03-08T06:06:49;2.30;61.80
32502;DHT22;18952;52.516;13.460;2024-03-08T06:09:19;2.30;61.80
32502;DHT22;18952;52.516;13.460;2024-03-08T06:11:46;2.30;61.90
32502;DHT22;18952;52.516;13.460;2024-03-08T06:14:15;2.30;62.40
32502;DHT22;18952;52.516;13.460;2024-03-08T06:16:41;2.30;62.30
32502;DHT22;18952;52.516;13.460;2024-03-08T06:19:09;2.30;62.20
32502;DHT22;18952;52.516;13.460;2024-03-08T06:21:37;2.30;62.10
32502;DHT22;18952;52.516;13.460;2024-03-08T06:24:04;2.40;62.10
32502;DHT22;18952;52.516;13.460;2024-03-08T06:26:32;2.40;61.90
32502;DHT22;18952;52.516;13.460;2024-03-08T06:29:03;2.40;62.20
32502;DHT22;18952;52.516;13.460;2024-03-08T06:31:32;2.30;62.40
32502;DHT22;18952;52.516;13.460;2024-03-08T06:33:59;2.30;62.40
32502;DHT22;18952;52.516;13.460;2024-03-08T06:36:27;2.30;62.50
32502;DHT22;18952;52.516;13.460;2024-03-08T06:38:56;2.40;62.30
32502;DHT22;18952;52.516;13.460;2024-03-08T06:41:25;2.50;62.10
32502;DHT22;18952;52.516;13.460;2024-03-08T06:43:53;2.50;61.90
32502;DHT22;18952;52.516;13.460;2024-03-08T06:46:21;2.50;62.00
32502;DHT22;18952;52.516;13.460;2024-03-08T06:48:48;2.60;62.10
32502;DHT22;18952;52.516;13.460;2024-03-08T06:51:16;2.60;62.20
32502;DHT22;18952;52.516;13.460;2024-03-08T06:53:58;2.60;62.20
32502;DHT22;18952;52.516;13.460;2024-03-08T06:56:26;2.60;61.90
32502;DHT22;18952;52.516;13.460;2024-03-08T06:58:55;2.50;62.10
32502;DHT22;18952;52.516;13.460;2024-03-08T07:01:24;2.60;61.90
32502;DHT22;18952;52.516;13.460;2024-03-08T07:03:55;2.70;61.50
32502;DHT22;18952;52.516;13.460;2024-03-08T07:06:22;2.70;61.50
32502;DHT22;18952;52.516;13.460;2024-03-08T07:08:52;2.70;61.60
32502;DHT22;18952;52.516;13.460;2024-03-08T07:11:22;2.80;61.20
32502;DHT22;18952;52.516;13.460;2024-03-08T07:13:51;2.80;61.00
32502;DHT22;18952;52.516;13.460;2024-03-08T07:16:19;2.80;60.80
32502;DHT22;18952;52.516;13.460;2024-03-08T07:18:47;2.80;61.00
32502;DHT22;18952;52.516;13.460;2024-03-08T07:21:14;2.90;60.90
32502;DHT22;18952;52.516;13.460;2024-03-08T07:23:42;2.90;60.50
32502;DHT22;18952;52.516;13.460;2024-03-08T07:26:19;3.00;60.50
32502;DHT22;18952;52.516;13.460;2024-03-08T07:28:47;3.00;60.50
32502;DHT22;18952;52.516;13.460;2024-03-08T07:31:16;3.00;60.50
32502;DHT22;18952;52.516;13.460;2024-03-08T07:33:44;3.10;60.60
32502;DHT22;18952;52.516;13.460;2024-03-08T07:36:13;3.10;60.30
32502;DHT22;18952;52.516;13.460;2024-03-08T07:38:41;3.20;60.00
32502;DHT22;18952;52.516;13.460;2024-03-08T07:41:08;3.20;60.20
32502;DHT22;18952;52.516;13.460;2024-03-08T07:43:35;3.10;59.90
32502;DHT22;18952;52.516;13.460;2024-03-08T07:46:04;3.10;60.00
32502;DHT22;18952;52.516;13.460;2024-03-08T07:48:31;3.20;59.90
32502;DHT22;18952;52.516;13.460;2024-03-08T07:51:00;3.30;59.50
32502;DHT22;18952;52.516;13.460;2024-03-08T07:53:27;3.30;59.40
32502;DHT22;18952;52.516;13.460;2024-03-08T07:55:55;3.40;59.10
32502;DHT22;18952;52.516;13.460;2024-03-08T07:58:23;3.50;58.60
32502;DHT22;18952;52.516;13.460;2024-03-08T08:00:53;3.60;58.40
32502;DHT22;18952;52.516;13.460;2024-03-08T08:03:25;3.70;58.20
32502;DHT22;18952;52.516;13.460;2024-03-08T08:05:52;3.70;58.30
32502;DHT22;18952;52.516;13.460;2024-03-08T08:08:20;3.70;58.20
32502;DHT22;18952;52.516;13.460;2024-03-08T08:10:48;3.80;57.90
32502;DHT22;18952;52.516;13.460;2024-03-08T08:13:16;3.80;57.90
32502;DHT22;18952;52.516;13.460;2024-03-08T08:15:46;3.90;57.80
32502;DHT22;18952;52.516;13.460;2024-03-08T08:18:13;4.00;57.40
32502;DHT22;18952;52.516;13.460;2024-03-08T08:20:41;4.00;57.50
32502;DHT22;18952;52.516;13.460;2024-03-08T08:23:08;4.10;57.20
32502;DHT22;18952;52.516;13.460;2024-03-08T08:25:36;4.10;56.70
32502;DHT22;18952;52.516;13.460;2024-03-08T08:28:04;4.20;56.60
32502;DHT22;18952;52.516;13.460;2024-03-08T08:30:32;4.20;56.50
32502;DHT22;18952;52.516;13.460;2024-03-08T08:33:00;4.20;56.10
32502;DHT22;18952;52.516;13.460;2024-03-08T08:35:28;4.30;55.70
32502;DHT22;18952;52.516;13.460;2024-03-08T08:37:58;4.30;55.80
32502;DHT22;18952;52.516;13.460;2024-03-08T08:40:26;4.30;55.40
32502;DHT22;18952;52.516;13.460;2024-03-08T08:43:00;4.30;55.40
32502;DHT22;18952;52.516;13.460;2024-03-08T08:45:28;4.50;55.10
32502;DHT22;18952;52.516;13.460;2024-03-08T08:47:55;4.60;55.00
32502;DHT22;18952;52.516;13.460;2024-03-08T08:50:26;4.60;54.80
32502;DHT22;18952;52.516;13.460;2024-03-08T08:52:57;4.60;54.00
32502;DHT22;18952;52.516;13.460;2024-03-08T08:55:24;4.70;54.00
32502;DHT22;18952;52.516;13.460;2024-03-08T08:57:52;4.70;54.00
32502;DHT22;18952;52.516;13.460;2024-03-08T09:00:20;4.80;53.90
32502;DHT22;18952;52.516;13.460;2024-03-08T09:02:48;4.90;53.70
32502;DHT22;18952;52.516;13.460;2024-03-08T09:05:16;4.90;53.80
32502;DHT22;18952;52.516;13.460;2024-03-08T09:07:44;4.90;53.60
32502;DHT22;18952;52.516;13.460;2024-03-08T09:10:14;5.00;53.50
32502;DHT22;18952;52.516;13.460;2024-03-08T09:12:45;5.00;53.30
32502;DHT22;18952;52.516;13.460;2024-03-08T09:15:12;5.10;53.20
32502;DHT22;18952;52.516;13.460;2024-03-08T09:17:41;5.20;53.00
32502;DHT22;18952;52.516;13.460;2024-03-08T09:20:10;5.20;52.60
32502;DHT22;18952;52.516;13.460;2024-03-08T09:22:37;5.20;52.10
32502;DHT22;18952;52.516;13.460;2024-03-08T09:25:06;5.30;52.50
32502;DHT22;18952;52.516;13.460;2024-03-08T09:27:36;5.30;52.50
32502;DHT22;18952;52.516;13.460;2024-03-08T09:30:08;5.40;52.10
32502;DHT22;18952;52.516;13.460;2024-03-08T09:32:42;5.30;51.90
32502;DHT22;18952;52.516;13.460;2024-03-08T09:35:10;5.40;52.00
32502;DHT22;18952;52.516;13.460;2024-03-08T09:37:37;5.30;52.10
32502;DHT22;18952;52.516;13.460;2024-03-08T09:40:04;5.40;52.10
32502;DHT22;18952;52.516;13.460;2024-03-08T09:42:33;5.40;51.90
32502;DHT22;18952;52.516;13.460;2024-03-08T09:44:59;5.50;51.80
32502;DHT22;18952;52.516;13.460;2024-03-08T09:47:28;5.60;51.60
32502;DHT22;18952;52.516;13.460;2024-03-08T09:49:55;5.60;51.00
32502;DHT22;18952;52.516;13.460;2024-03-08T09:52:26;5.60;50.60
32502;DHT22;18952;52.516;13.460;2024-03-08T09:54:55;5.60;50.60
32502;DHT22;18952;52.516;13.460;2024-03-08T09:57:25;5.70;51.10
32502;DHT22;18952;52.516;13.460;2024-03-08T09:59:54;5.60;50.20
32502;DHT22;18952;52.516;13.460;2024-03-08T10:02:20;5.70;50.20
32502;DHT22;18952;52.516;13.460;2024-03-08T10:04:51;5.80;50.00
32502;DHT22;18952;52.516;13.460;2024-03-08T10:07:20;5.90;50.10
32502;DHT22;18952;52.516;13.460;2024-03-08T10:09:47;5.90;50.20
32502;DHT22;18952;52.516;13.460;2024-03-08T10:12:18;5.90;49.60
32502;DHT22;18952;52.516;13.460;2024-03-08T10:14:45;6.00;49.60
32502;DHT22;18952;52.516;13.460;2024-03-08T10:17:17;6.10;50.10
32502;DHT22;18952;52.516;13.460;2024-03-08T10:19:52;6.00;49.00
32502;DHT22;18952;52.516;13.460;2024-03-08T10:22:20;6.10;49.20
32502;DHT22;18952;52.516;13.460;2024-03-08T10:24:47;6.20;49.40
32502;DHT22;18952;52.516;13.460;2024-03-08T10:27:16;6.30;48.90
32502;DHT22;18952;52.516;13.460;2024-03-08T10:29:53;6.30;48.50
32502;DHT22;18952;52.516;13.460;2024-03-08T10:32:22;6.40;48.70
32502;DHT22;18952;52.516;13.460;2024-03-08T10:34:49;6.40;48.60
32502;DHT22;18952;52.516;13.460;2024-03-08T10:37:21;6.40;48.30
32502;DHT22;18952;52.516;13.460;2024-03-08T10:40:04;6.40;48.00
32502;DHT22;18952;52.516;13.460;2024-03-08T10:42:33;6.50;48.10
32502;DHT22;18952;52.516;13.460;2024-03-08T10:45:38;6.60;47.70
32502;DHT22;18952;52.516;13.460;2024-03-08T10:48:26;6.60;46.60
32502;DHT22;18952;52.516;13.460;2024-03-08T10:51:06;6.70;46.60
32502;DHT22;18952;52.516;13.460;2024-03-08T10:53:34;6.70;46.10
32502;DHT22;18952;52.516;13.460;2024-03-08T10:56:02;6.70;46.30
32502;DHT22;18952;52.516;13.460;2024-03-08T10:58:29;6.70;45.30
32502;DHT22;18952;52.516;13.460;2024-03-08T11:00:57;6.70;45.10
32502;DHT22;18952;52.516;13.460;2024-03-08T11:03:55;6.80;45.30
32502;DHT22;18952;52.516;13.460;2024-03-08T11:09:37;7.00;44.80
32502;DHT22;18952;52.516;13.460;2024-03-08T11:12:22;7.00;44.60
32502;DHT22;18952;52.516;13.460;2024-03-08T11:14:55;7.00;44.70
32502;DHT22;18952;52.516;13.460;2024-03-08T11:17:40;7.00;44.30
32502;DHT22;18952;52.516;13.460;2024-03-08T11:20:16;7.00;44.20
32502;DHT22;18952;52.516;13.460;2024-03-08T11:23:00;7.00;43.90
32502;DHT22;18952;52.516;13.460;2024-03-08T11:25:40;7.10;43.80
32502;DHT22;18952;52.516;13.460;2024-03-08T11:28:13;7.20;43.10
32502;DHT22;18952;52.516;13.460;2024-03-08T11:30:43;7.20;43.80
32502;DHT22;18952;52.516;13.460;2024-03-08T11:33:16;7.30;44.00
32502;DHT22;18952;52.516;13.460;2024-03-08T11:35:45;7.40;43.50
32502;DHT22;18952;52.516;13.460;2024-03-08T11:38:12;7.40;43.50
32502;DHT22;18952;52.516;13.460;2024-03-08T11:40:40;7.40;43.50
32502;DHT22;18952;52.516;13.460;2024-03-08T11:43:07;7.40;43.20
32502;DHT22;18952;52.516;13.460;2024-03-08T11:45:35;7.50;43.40
32502;DHT22;18952;52.516;13.460;2024-03-08T11:48:05;7.50;43.70
32502;DHT22;18952;52.516;13.460;2024-03-08T11:50:33;7.60;43.70
32502;DHT22;18952;52.516;13.460;2024-03-08T11:53:06;7.70;43.80
32502;DHT22;18952;52.516;13.460;2024-03-08T11:55:33;7.70;43.90
32502;DHT22;18952;52.516;13.460;2024-03-08T11:58:05;7.70;43.30
32502;DHT22;18952;52.516;13.460;2024-03-08T12:00:33;7.80;43.40
32502;DHT22;18952;52.516;13.460;2024-03-08T12:03:02;7.80;42.50
32502;DHT22;18952;52.516;13.460;2024-03-08T12:05:31;7.90;42.90
32502;DHT22;18952;52.516;13.460;2024-03-08T12:07:59;8.00;43.30
32502;DHT22;18952;52.516;13.460;2024-03-08T12:10:27;8.10;43.30
32502;DHT22;18952;52.516;13.460;2024-03-08T12:12:58;8.30;42.80
32502;DHT22;18952;52.516;13.460;2024-03-08T12:15:26;8.30;42.00
32502;DHT22;18952;52.516;13.460;2024-03-08T12:17:55;8.40;41.90
32502;DHT22;18952;52.516;13.460;2024-03-08T12:20:27;8.50;41.80
32502;DHT22;18952;52.516;13.460;2024-03-08T12:22:55;8.50;41.50
32502;DHT22;18952;52.516;13.460;2024-03-08T12:25:32;8.50;41.70
32502;DHT22;18952;52.516;13.460;2024-03-08T12:28:11;8.60;41.40
32502;DHT22;18952;52.516;13.460;2024-03-08T12:30:46;8.80;40.80
32502;DHT22;18952;52.516;13.460;2024-03-08T12:33:17;8.80;40.90
32502;DHT22;18952;52.516;13.460;2024-03-08T12:35:57;9.10;40.60
32502;DHT22;18952;52.516;13.460;2024-03-08T12:38:28;9.30;40.20
32502;DHT22;18952;52.516;13.460;2024-03-08T12:40:58;9.40;40.10
32502;DHT22;18952;52.516;13.460;2024-03-08T12:43:27;9.70;39.70
32502;DHT22;18952;52.516;13.460;2024-03-08T12:45:56;9.80;39.40
32502;DHT22;18952;52.516;13.460;2024-03-08T12:48:25;9.80;38.80
32502;DHT22;18952;52.516;13.460;2024-03-08T12:50:55;9.80;39.30
32502;DHT22;18952;52.516;13.460;2024-03-08T12:53:24;10.00;38.90
32502;DHT22;18952;52.516;13.460;2024-03-08T12:55:52;10.20;38.70
32502;DHT22;18952;52.516;13.460;2024-03-08T12:58:22;10.50;38.50
32502;DHT22;18952;52.516;13.460;2024-03-08T13:00:52;10.60;37.90
32502;DHT22;18952;52.516;13.460;2024-03-08T13:03:21;10.60;37.70
32502;DHT22;18952;52.516;13.460;2024-03-08T13:05:48;10.70;37.50
32502;DHT22;18952;52.516;13.460;2024-03-08T13:08:16;10.90;37.30
32502;DHT22;18952;52.516;13.460;2024-03-08T13:10:43;11.10;36.50
32502;DHT22;18952;52.516;13.460;2024-03-08T13:13:12;11.30;36.60
32502;DHT22;18952;52.516;13.460;2024-03-08T13:15:42;11.50;36.20
32502;DHT22;18952;52.516;13.460;2024-03-08T13:18:10;11.70;36.30
32502;DHT22;18952;52.516;13.460;2024-03-08T13:20:41;11.70;35.60
32502;DHT22;18952;52.516;13.460;2024-03-08T13:23:15;11.80;35.30
32502;DHT22;18952;52.516;13.460;2024-03-08T13:25:43;12.10;35.60
32502;DHT22;18952;52.516;13.460;2024-03-08T13:28:12;12.30;34.60
32502;DHT22;18952;52.516;13.460;2024-03-08T13:30:39;12.30;34.80
32502;DHT22;18952;52.516;13.460;2024-03-08T13:33:07;12.40;34.50
32502;DHT22;18952;52.516;13.460;2024-03-08T13:35:35;12.50;34.30
32502;DHT22;18952;52.516;13.460;2024-03-08T13:38:04;12.80;33.90
32502;DHT22;18952;52.516;13.460;2024-03-08T13:40:34;12.90;34.20
32502;DHT22;18952;52.516;13.460;2024-03-08T13:43:02;13.00;33.80
32502;DHT22;18952;52.516;13.460;2024-03-08T13:45:30;13.20;33.80
32502;DHT22;18952;52.516;13.460;2024-03-08T13:47:58;13.20;33.70
32502;DHT22;18952;52.516;13.460;2024-03-08T13:50:26;13.30;33.30
32502;DHT22;18952;52.516;13.460;2024-03-08T13:52:56;13.20;33.30
32502;DHT22;18952;52.516;13.460;2024-03-08T13:55:25;13.30;32.80
32502;DHT22;18952;52.516;13.460;2024-03-08T13:57:53;13.50;32.60
32502;DHT22;18952;52.516;13.460;2024-03-08T14:00:20;13.50;32.50
32502;DHT22;18952;52.516;13.460;2024-03-08T14:02:47;13.50;33.10
32502;DHT22;18952;52.516;13.460;2024-03-08T14:05:14;13.70;32.00
32502;DHT22;18952;52.516;13.460;2024-03-08T14:07:41;13.80;32.10
32502;DHT22;18952;52.516;13.460;2024-03-08T14:10:09;13.80;32.00
32502;DHT22;18952;52.516;13.460;2024-03-08T14:12:36;13.80;31.80
32502;DHT22;18952;52.516;13.460;2024-03-08T14:15:04;13.90;32.00
32502;DHT22;18952;52.516;13.460;2024-03-08T14:17:36;14.00;32.30
32502;DHT22;18952;52.516;13.460;2024-03-08T14:20:06;14.10;32.50
32502;DHT22;18952;52.516;13.460;2024-03-08T14:22:34;14.20;32.20
32502;DHT22;18952;52.516;13.460;2024-03-08T14:25:01;14.20;32.90
32502;DHT22;18952;52.516;13.460;2024-03-08T14:27:31;14.10;32.70
32502;DHT22;18952;52.516;13.460;2024-03-08T14:29:59;14.20;31.50
32502;DHT22;18952;52.516;13.460;2024-03-08T14:32:27;14.20;32.10
32502;DHT22;18952;52.516;13.460;2024-03-08T14:34:55;14.30;32.10
32502;DHT22;18952;52.516;13.460;2024-03-08T14:37:23;14.40;32.00
32502;DHT22;18952;52.516;13.460;2024-03-08T14:39:50;14.30;32.80
32502;DHT22;18952;52.516;13.460;2024-03-08T14:42:17;14.40;33.00
32502;DHT22;18952;52.516;13.460;2024-03-08T14:44:46;14.50;33.00
32502;DHT22;18952;52.516;13.460;2024-03-08T14:47:15;14.50;33.50
32502;DHT22;18952;52.516;13.460;2024-03-08T14:49:41;14.60;31.90
32502;DHT22;18952;52.516;13.460;2024-03-08T14:52:09;14.50;31.90
32502;DHT22;18952;52.516;13.460;2024-03-08T14:54:36;14.40;31.60
32502;DHT22;18952;52.516;13.460;2024-03-08T14:57:04;14.60;31.70
32502;DHT22;18952;52.516;13.460;2024-03-08T14:59:33;14.60;31.10
32502;DHT22;18952;52.516;13.460;2024-03-08T15:02:01;14.60;30.90
32502;DHT22;18952;52.516;13.460;2024-03-08T15:04:29;14.50;30.40
32502;DHT22;18952;52.516;13.460;2024-03-08T15:06:57;14.50;30.50
32502;DHT22;18952;52.516;13.460;2024-03-08T15:09:25;14.50;30.40
32502;DHT22;18952;52.516;13.460;2024-03-08T15:11:53;14.40;30.00
32502;DHT22;18952;52.516;13.460;2024-03-08T15:14:21;14.40;30.30
32502;DHT22;18952;52.516;13.460;2024-03-08T15:16:49;14.50;30.30
32502;DHT22;18952;52.516;13.460;2024-03-08T15:19:17;14.50;30.10
32502;DHT22;18952;52.516;13.460;2024-03-08T15:21:46;14.40;30.20
32502;DHT22;18952;52.516;13.460;2024-03-08T15:24:13;14.40;30.00
32502;DHT22;18952;52.516;13.460;2024-03-08T15:26:42;14.20;30.30
32502;DHT22;18952;52.516;13.460;2024-03-08T15:29:10;14.10;30.50
32502;DHT22;18952;52.516;13.460;2024-03-08T15:31:41;14.10;30.70
32502;DHT22;18952;52.516;13.460;2024-03-08T15:34:12;14.10;30.70
32502;DHT22;18952;52.516;13.460;2024-03-08T15:36:40;13.70;30.60
32502;DHT22;18952;52.516;13.460;2024-03-08T15:39:08;13.70;31.20
32502;DHT22;18952;52.516;13.460;2024-03-08T15:41:36;13.60;31.40